sensor_id;sensor_type;location;lat;lon;timestamp;pressure;altitude;pressure_sealevel;temperature;humidity
43683;BME280;29285;52.128;21.060;2023-12-04T00:00:50;100668.48;;;-1.45;100.00
43683;BME280;29285;52.128;21.060;2023-12-04T00:06:11;100675.98;;;-1.49;100.00
43683;BME280;29285;52.128;21.060;2023-12-04T00:11:13;100674.18;;;-1.47;100.00
43683;BME280;29285;52.128;21.060;2023-12-04T00:16:15;100679.09;;;-1.43;100.00
43683;BME280;29285;52.128;21.060;2023-12-04T00:21:16;100679.37;;;-1.36;100.00
43683;BME280;29285;52.128;21.060;2023-12-04T00:26:18;100680.40;;;-1.35;100.00
43683;BME280;29285;52.128;21.060;2023-12-04T00:31:20;100683.69;;;-1.34;100.00
43683;BME280;29285;52.128;21.060;2023-12-04T00:36:21;100685.58;;;-1.34;100.00
43683;BME280;29285;52.128;21.060;2023-12-04T00:41:23;100689.22;;;-1.32;100.00
43683;BME280;29285;52.128;21.060;2023-12-04T00:46:25;100695.36;;;-1.36;100.00
43683;BME280;29285;52.128;21.060;2023-12-04T00:51:27;100700.64;;;-1.36;100.00
43683;BME280;29285;52.128;21.060;2023-12-04T00:56:28;100702.59;;;-1.30;100.00
43683;BME280;29285;52.128;21.060;2023-12-04T01:01:30;100703.48;;;-1.29;100.00
43683;BME280;29285;52.128;21.060;2023-12-04T01:06:32;100704.88;;;-1.28;100.00
43683;BME280;29285;52.128;21.060;2023-12-04T01:11:33;100707.51;;;-1.26;100.00
43683;BME280;29285;52.128;21.060;2023-12-04T01:16:35;100712.47;;;-1.21;100.00
43683;BME280;29285;52.128;21.060;2023-12-04T01:21:36;100717.45;;;-1.15;100.00
43683;BME280;29285;52.128;21.060;2023-12-04T01:26:38;100720.23;;;-1.18;100.00
43683;BME280;29285;52.128;21.060;2023-12-04T01:31:40;100718.52;;;-1.23;100.00
43683;BME280;29285;52.128;21.060;2023-12-04T01:36:41;100722.59;;;-1.23;100.00
43683;BME280;29285;52.128;21.060;2023-12-04T01:41:43;100722.63;;;-1.22;100.00
43683;BME280;29285;52.128;21.060;2023-12-04T01:46:44;100724.16;;;-1.22;100.00
43683;BME280;29285;52.128;21.060;2023-12-04T01:51:46;100725.66;;;-1.23;100.00
43683;BME280;29285;52.128;21.060;2023-12-04T01:56:48;100737.66;;;-1.21;100.00
43683;BME280;29285;52.128;21.060;2023-12-04T02:01:50;100736.92;;;-1.23;100.00
43683;BME280;29285;52.128;21.060;2023-12-04T04:31:16;100833.73;;;-1.75;100.00
43683;BME280;29285;52.128;21.060;2023-12-04T04:36:18;100831.04;;;-1.78;100.00
43683;BME280;29285;52.128;21.060;2023-12-04T04:41:19;100835.45;;;-1.78;100.00
43683;BME280;29285;52.128;21.060;2023-12-04T04:46:21;100833.44;;;-1.78;100.00
43683;BME280;29285;52.128;21.060;2023-12-04T04:51:23;100838.33;;;-1.79;100.00
43683;BME280;29285;52.128;21.060;2023-12-04T04:56:25;100840.68;;;-1.88;100.00
43683;BME280;29285;52.128;21.060;2023-12-04T05:01:27;100844.11;;;-1.91;100.00
43683;BME280;29285;52.128;21.060;2023-12-04T05:06:29;100838.80;;;-1.92;100.00
43683;BME280;29285;52.128;21.060;2023-12-04T05:11:31;100839.29;;;-1.88;100.00
43683;BME280;29285;52.128;21.060;2023-12-04T05:16:32;100842.23;;;-1.91;100.00
43683;BME280;29285;52.128;21.060;2023-12-04T05:21:34;100849.98;;;-2.01;100.00
43683;BME280;29285;52.128;21.060;2023-12-04T05:26:36;100847.91;;;-2.05;100.00
43683;BME280;29285;52.128;21.060;2023-12-04T05:31:37;100851.23;;;-2.03;100.00
43683;BME280;29285;52.128;21.060;2023-12-04T05:36:39;100857.52;;;-1.95;100.00
43683;BME280;29285;52.128;21.060;2023-12-04T05:41:40;100854.31;;;-1.87;100.00
43683;BME280;29285;52.128;21.060;2023-12-04T05:46:42;100855.20;;;-1.90;100.00
43683;BME280;29285;52.128;21.060;2023-12-04T05:51:44;100852.39;;;-1.84;100.00
43683;BME280;29285;52.128;21.060;2023-12-04T05:56:45;100854.89;;;-1.77;100.00
43683;BME280;29285;52.128;21.060;2023-12-04T06:01:47;100858.25;;;-1.82;100.00
43683;BME280;29285;52.128;21.060;2023-12-04T06:06:49;100864.70;;;-1.83;100.00
43683;BME280;29285;52.128;21.060;2023-12-04T06:11:51;100870.48;;;-1.82;100.00
43683;BME280;29285;52.128;21.060;2023-12-04T06:16:53;100872.42;;;-1.77;100.00
43683;BME280;29285;52.128;21.060;2023-12-04T06:21:55;100881.83;;;-1.67;100.00
43683;BME280;29285;52.128;21.060;2023-12-04T06:26:57;100877.74;;;-1.68;100.00
43683;BME280;29285;52.128;21.060;2023-12-04T06:31:59;100875.84;;;-1.68;100.00
43683;BME280;29285;52.128;21.060;2023-12-04T06:37:02;100883.39;;;-1.67;100.00
43683;BME280;29285;52.128;21.060;2023-12-04T06:42:05;100882.84;;;-1.68;100.00
43683;BME280;29285;52.128;21.060;2023-12-04T06:47:08;100882.34;;;-1.63;100.00
43683;BME280;29285;52.128;21.060;2023-12-04T06:52:10;100880.42;;;-1.61;100.00
43683;BME280;29285;52.128;21.060;2023-12-04T06:57:12;100877.55;;;-1.60;100.00
43683;BME280;29285;52.128;21.060;2023-12-04T07:02:16;100883.06;;;-1.54;100.00
43683;BME280;29285;52.128;21.060;2023-12-04T07:07:17;100884.18;;;-1.52;100.00
43683;BME280;29285;52.128;21.060;2023-12-04T07:12:19;100882.27;;;-1.45;100.00
43683;BME280;29285;52.128;21.060;2023-12-04T07:17:21;100890.79;;;-1.40;100.00
43683;BME280;29285;52.128;21.060;2023-12-04T07:22:23;100896.55;;;-1.50;100.00
43683;BME280;29285;52.128;21.060;2023-12-04T07:27:25;100894.46;;;-1.55;100.00
43683;BME280;29285;52.128;21.060;2023-12-04T07:32:27;100899.96;;;-1.50;100.00
43683;BME280;29285;52.128;21.060;2023-12-04T07:37:29;100898.73;;;-1.54;100.00
43683;BME280;29285;52.128;21.060;2023-12-04T07:42:32;100899.48;;;-1.57;100.00
43683;BME280;29285;52.128;21.060;2023-12-04T07:47:34;100910.08;;;-1.56;100.00
43683;BME280;29285;52.128;21.060;2023-12-04T07:52:36;100908.52;;;-1.40;100.00
43683;BME280;29285;52.128;21.060;2023-12-04T07:57:38;100906.07;;;-1.29;100.00
43683;BME280;29285;52.128;21.060;2023-12-04T08:02:39;100907.89;;;-1.30;100.00
43683;BME280;29285;52.128;21.060;2023-12-04T08:07:42;100915.41;;;-1.34;100.00
43683;BME280;29285;52.128;21.060;2023-12-04T08:12:46;100911.33;;;-1.34;100.00
43683;BME280;29285;52.128;21.060;2023-12-04T08:17:48;100920.92;;;-1.24;100.00
43683;BME280;29285;52.128;21.060;2023-12-04T08:22:50;100929.13;;;-1.27;100.00
43683;BME280;29285;52.128;21.060;2023-12-04T08:27:53;100922.77;;;-1.25;100.00
43683;BME280;29285;52.128;21.060;2023-12-04T08:32:54;100926.02;;;-1.20;100.00
43683;BME280;29285;52.128;21.060;2023-12-04T08:37:56;100925.58;;;-1.14;100.00
43683;BME280;29285;52.128;21.060;2023-12-04T08:42:58;100936.27;;;-1.15;100.00
43683;BME280;29285;52.128;21.060;2023-12-04T08:48:00;100939.63;;;-1.21;100.00
43683;BME280;29285;52.128;21.060;2023-12-04T08:53:02;100945.23;;;-1.33;100.00
43683;BME280;29285;52.128;21.060;2023-12-04T08:58:04;100950.89;;;-1.32;100.00
43683;BME280;29285;52.128;21.060;2023-12-04T09:03:06;100950.64;;;-1.31;100.00
43683;BME280;29285;52.128;21.060;2023-12-04T09:08:08;100948.24;;;-1.30;100.00
43683;BME280;29285;52.128;21.060;2023-12-04T09:13:09;100953.02;;;-1.22;100.00
43683;BME280;29285;52.128;21.060;2023-12-04T09:18:11;100952.03;;;-1.09;100.00
43683;BME280;29285;52.128;21.060;2023-12-04T09:23:12;100951.23;;;-1.03;100.00
43683;BME280;29285;52.128;21.060;2023-12-04T09:28:14;100949.08;;;-0.94;100.00
43683;BME280;29285;52.128;21.060;2023-12-04T09:33:16;100944.09;;;-0.95;100.00
43683;BME280;29285;52.128;21.060;2023-12-04T09:38:18;100937.95;;;-0.96;100.00
43683;BME280;29285;52.128;21.060;2023-12-04T09:43:19;100937.29;;;-0.94;100.00
43683;BME280;29285;52.128;21.060;2023-12-04T09:48:22;100935.67;;;-1.05;100.00
43683;BME280;29285;52.128;21.060;2023-12-04T09:53:26;100936.77;;;-1.16;100.00
43683;BME280;29285;52.128;21.060;2023-12-04T09:58:29;100937.51;;;-1.27;100.00
43683;BME280;29285;52.128;21.060;2023-12-04T10:03:32;100937.61;;;-1.20;100.00
43683;BME280;29285;52.128;21.060;2023-12-04T10:08:34;100934.70;;;-1.08;100.00
43683;BME280;29285;52.128;21.060;2023-12-04T10:13:36;100932.28;;;-1.00;100.00
43683;BME280;29285;52.128;21.060;2023-12-04T10:18:39;100928.52;;;-0.92;100.00
43683;BME280;29285;52.128;21.060;2023-12-04T10:23:42;100923.19;;;-0.93;100.00
43683;BME280;29285;52.128;21.060;2023-12-04T10:29:02;100923.38;;;-0.97;100.00
43683;BME280;29285;52.128;21.060;2023-12-04T10:34:04;100924.23;;;-0.93;100.00
43683;BME280;29285;52.128;21.060;2023-12-04T10:39:06;100922.98;;;-0.90;100.00
43683;BME280;29285;52.128;21.060;2023-12-04T10:44:07;100921.88;;;-0.79;100.00
43683;BME280;29285;52.128;21.060;2023-12-04T10:49:09;100921.85;;;-0.71;100.00
43683;BME280;29285;52.128;21.060;2023-12-04T10:54:12;100924.27;;;-0.75;100.00
43683;BME280;29285;52.128;21.060;2023-12-04T10:59:18;100924.75;;;-0.71;100.00
43683;BME280;29285;52.128;21.060;2023-12-04T11:04:25;100925.55;;;-0.72;100.00
43683;BME280;29285;52.128;21.060;2023-12-04T11:09:29;100920.36;;;-0.75;100.00
43683;BME280;29285;52.128;21.060;2023-12-04T11:14:37;100918.73;;;-0.64;100.00
43683;BME280;29285;52.128;21.060;2023-12-04T11:19:54;100920.06;;;-0.51;100.00
43683;BME280;29285;52.128;21.060;2023-12-04T11:24:56;100924.88;;;-0.41;100.00
43683;BME280;29285;52.128;21.060;2023-12-04T11:29:59;100923.55;;;-0.45;100.00
43683;BME280;29285;52.128;21.060;2023-12-04T11:35:01;100925.02;;;-0.51;100.00
43683;BME280;29285;52.128;21.060;2023-12-04T11:40:05;100925.39;;;-0.63;100.00
43683;BME280;29285;52.128;21.060;2023-12-04T11:45:08;100917.28;;;-0.61;100.00
43683;BME280;29285;52.128;21.060;2023-12-04T11:50:10;100914.29;;;-0.37;100.00
43683;BME280;29285;52.128;21.060;2023-12-04T11:55:16;100907.95;;;-0.37;100.00
43683;BME280;29285;52.128;21.060;2023-12-04T12:00:21;100908.63;;;-0.29;100.00
43683;BME280;29285;52.128;21.060;2023-12-04T12:05:24;100908.60;;;-0.25;100.00
43683;BME280;29285;52.128;21.060;2023-12-04T12:10:29;100902.44;;;-0.35;100.00
43683;BME280;29285;52.128;21.060;2023-12-04T12:15:32;100900.20;;;-0.44;100.00
43683;BME280;29285;52.128;21.060;2023-12-04T12:20:36;100896.75;;;-0.36;100.00
43683;BME280;29285;52.128;21.060;2023-12-04T12:25:38;100894.94;;;-0.34;100.00
43683;BME280;29285;52.128;21.060;2023-12-04T12:30:39;100887.02;;;-0.32;100.00
43683;BME280;29285;52.128;21.060;2023-12-04T12:35:43;100883.41;;;-0.28;100.00
43683;BME280;29285;52.128;21.060;2023-12-04T12:40:45;100878.89;;;-0.26;100.00
43683;BME280;29285;52.128;21.060;2023-12-04T12:45:47;100878.09;;;-0.29;100.00
43683;BME280;29285;52.128;21.060;2023-12-04T12:50:52;100879.88;;;-0.45;100.00
43683;BME280;29285;52.128;21.060;2023-12-04T12:55:53;100875.98;;;-0.54;100.00
43683;BME280;29285;52.128;21.060;2023-12-04T13:00:56;100872.09;;;-0.48;100.00
43683;BME280;29285;52.128;21.060;2023-12-04T13:05:58;100867.64;;;-0.58;100.00
43683;BME280;29285;52.128;21.060;2023-12-04T13:11:00;100866.94;;;-0.54;100.00
43683;BME280;29285;52.128;21.060;2023-12-04T13:16:01;100862.66;;;-0.31;100.00
43683;BME280;29285;52.128;21.060;2023-12-04T13:21:04;100860.35;;;-0.05;100.00
43683;BME280;29285;52.128;21.060;2023-12-04T13:26:07;100862.05;;;-0.01;100.00
43683;BME280;29285;52.128;21.060;2023-12-04T13:31:12;100856.75;;;-0.01;100.00
43683;BME280;29285;52.128;21.060;2023-12-04T13:36:14;100847.08;;;0.01;100.00
43683;BME280;29285;52.128;21.060;2023-12-04T13:41:16;100845.31;;;0.04;100.00
43683;BME280;29285;52.128;21.060;2023-12-04T13:46:40;100846.56;;;-0.04;100.00
43683;BME280;29285;52.128;21.060;2023-12-04T13:51:42;100847.11;;;-0.03;100.00
43683;BME280;29285;52.128;21.060;2023-12-04T13:56:44;100851.12;;;-0.10;100.00
43683;BME280;29285;52.128;21.060;2023-12-04T14:01:54;100852.85;;;-0.24;100.00
43683;BME280;29285;52.128;21.060;2023-12-04T14:07:01;100855.41;;;-0.38;100.00
43683;BME280;29285;52.128;21.060;2023-12-04T14:12:03;100856.20;;;-0.63;100.00
43683;BME280;29285;52.128;21.060;2023-12-04T14:17:06;100857.67;;;-0.82;100.00
43683;BME280;29285;52.128;21.060;2023-12-04T14:22:09;100856.63;;;-0.96;100.00
43683;BME280;29285;52.128;21.060;2023-12-04T14:27:11;100861.67;;;-1.07;100.00
43683;BME280;29285;52.128;21.060;2023-12-04T14:32:16;100860.48;;;-1.15;100.00
43683;BME280;29285;52.128;21.060;2023-12-04T14:37:19;100860.05;;;-1.22;100.00
43683;BME280;29285;52.128;21.060;2023-12-04T14:42:21;100852.68;;;-1.18;100.00
43683;BME280;29285;52.128;21.060;2023-12-04T14:47:23;100857.52;;;-1.21;100.00
43683;BME280;29285;52.128;21.060;2023-12-04T14:52:25;100858.53;;;-1.30;100.00
43683;BME280;29285;52.128;21.060;2023-12-04T14:57:30;100853.88;;;-1.40;100.00
43683;BME280;29285;52.128;21.060;2023-12-04T15:02:41;100854.17;;;-1.45;100.00
43683;BME280;29285;52.128;21.060;2023-12-04T15:08:01;100852.86;;;-1.52;100.00
43683;BME280;29285;52.128;21.060;2023-12-04T15:13:06;100853.71;;;-1.61;100.00
43683;BME280;29285;52.128;21.060;2023-12-04T15:18:27;100858.45;;;-1.57;100.00
43683;BME280;29285;52.128;21.060;2023-12-04T15:23:40;100859.02;;;-1.60;100.00
43683;BME280;29285;52.128;21.060;2023-12-04T15:28:41;100867.67;;;-1.65;100.00
43683;BME280;29285;52.128;21.060;2023-12-04T15:33:43;100866.58;;;-1.66;100.00
43683;BME280;29285;52.128;21.060;2023-12-04T15:38:45;100870.19;;;-1.61;100.00
43683;BME280;29285;52.128;21.060;2023-12-04T15:43:47;100870.97;;;-1.67;100.00
43683;BME280;29285;52.128;21.060;2023-12-04T15:48:50;100869.35;;;-1.73;100.00
43683;BME280;29285;52.128;21.060;2023-12-04T15:53:52;100861.07;;;-1.76;100.00
43683;BME280;29285;52.128;21.060;2023-12-04T15:58:54;100857.87;;;-1.71;100.00
43683;BME280;29285;52.128;21.060;2023-12-04T16:03:55;100863.27;;;-1.68;100.00
43683;BME280;29285;52.128;21.060;2023-12-04T16:08:57;100863.55;;;-1.69;100.00
43683;BME280;29285;52.128;21.060;2023-12-04T16:13:59;100863.56;;;-1.77;100.00
43683;BME280;29285;52.128;21.060;2023-12-04T16:19:01;100862.25;;;-1.80;100.00
43683;BME280;29285;52.128;21.060;2023-12-04T16:24:05;100855.52;;;-1.75;100.00
43683;BME280;29285;52.128;21.060;2023-12-04T16:29:06;100855.31;;;-1.71;100.00
43683;BME280;29285;52.128;21.060;2023-12-04T16:34:08;100855.27;;;-1.72;100.00
43683;BME280;29285;52.128;21.060;2023-12-04T16:39:10;100857.77;;;-1.78;100.00
43683;BME280;29285;52.128;21.060;2023-12-04T16:44:12;100854.86;;;-1.82;100.00
43683;BME280;29285;52.128;21.060;2023-12-04T16:49:19;100855.08;;;-1.77;100.00
43683;BME280;29285;52.128;21.060;2023-12-04T16:54:20;100848.14;;;-1.60;100.00
43683;BME280;29285;52.128;21.060;2023-12-04T16:59:22;100847.34;;;-1.38;100.00
43683;BME280;29285;52.128;21.060;2023-12-04T17:04:24;100845.86;;;-1.18;100.00
43683;BME280;29285;52.128;21.060;2023-12-04T17:09:26;100845.65;;;-1.07;100.00
43683;BME280;29285;52.128;21.060;2023-12-04T17:14:27;100844.20;;;-1.14;100.00
43683;BME280;29285;52.128;21.060;2023-12-04T17:19:29;100846.14;;;-1.16;100.00
43683;BME280;29285;52.128;21.060;2023-12-04T17:24:32;100852.20;;;-1.22;100.00
43683;BME280;29285;52.128;21.060;2023-12-04T17:29:34;100846.50;;;-1.20;100.00
43683;BME280;29285;52.128;21.060;2023-12-04T17:34:38;100841.54;;;-1.25;100.00
43683;BME280;29285;52.128;21.060;2023-12-04T17:39:40;100838.67;;;-1.37;100.00
43683;BME280;29285;52.128;21.060;2023-12-04T17:44:44;100836.31;;;-1.49;100.00
43683;BME280;29285;52.128;21.060;2023-12-04T17:49:46;100845.44;;;-1.76;100.00
43683;BME280;29285;52.128;21.060;2023-12-04T17:54:47;100846.54;;;-1.86;100.00
43683;BME280;29285;52.128;21.060;2023-12-04T17:59:49;100846.23;;;-1.85;100.00
43683;BME280;29285;52.128;21.060;2023-12-04T18:04:50;100849.66;;;-1.96;100.00
43683;BME280;29285;52.128;21.060;2023-12-04T18:09:52;100856.22;;;-2.02;100.00
43683;BME280;29285;52.128;21.060;2023-12-04T18:14:54;100855.09;;;-2.01;100.00
43683;BME280;29285;52.128;21.060;2023-12-04T18:19:56;100852.88;;;-1.77;100.00
43683;BME280;29285;52.128;21.060;2023-12-04T18:25:01;100852.45;;;-1.58;100.00
43683;BME280;29285;52.128;21.060;2023-12-04T18:30:04;100846.41;;;-1.52;100.00
43683;BME280;29285;52.128;21.060;2023-12-04T18:35:12;100840.91;;;-1.49;100.00
43683;BME280;29285;52.128;21.060;2023-12-04T18:40:16;100838.98;;;-1.46;100.00
43683;BME280;29285;52.128;21.060;2023-12-04T18:45:19;100842.54;;;-1.47;100.00
43683;BME280;29285;52.128;21.060;2023-12-04T18:50:22;100841.85;;;-1.48;100.00
43683;BME280;29285;52.128;21.060;2023-12-04T18:55:23;100846.59;;;-1.48;100.00
43683;BME280;29285;52.128;21.060;2023-12-04T19:00:25;100845.55;;;-1.52;100.00
43683;BME280;29285;52.128;21.060;2023-12-04T19:05:27;100844.08;;;-1.59;100.00
43683;BME280;29285;52.128;21.060;2023-12-04T19:10:31;100840.37;;;-1.66;100.00
43683;BME280;29285;52.128;21.060;2023-12-04T19:15:33;100836.85;;;-1.69;100.00
43683;BME280;29285;52.128;21.060;2023-12-04T19:20:35;100835.63;;;-1.74;100.00
43683;BME280;29285;52.128;21.060;2023-12-04T19:25:37;100833.58;;;-1.75;100.00
43683;BME280;29285;52.128;21.060;2023-12-04T19:30:40;100829.30;;;-1.79;100.00
43683;BME280;29285;52.128;21.060;2023-12-04T19:35:43;100823.91;;;-1.90;100.00
43683;BME280;29285;52.128;21.060;2023-12-04T19:40:47;100824.02;;;-2.00;100.00
43683;BME280;29285;52.128;21.060;2023-12-04T19:45:49;100820.83;;;-2.06;100.00
43683;BME280;29285;52.128;21.060;2023-12-04T19:50:51;100822.36;;;-2.10;100.00
43683;BME280;29285;52.128;21.060;2023-12-04T19:55:53;100814.80;;;-2.12;100.00
43683;BME280;29285;52.128;21.060;2023-12-04T20:00:55;100818.63;;;-2.14;100.00
43683;BME280;29285;52.128;21.060;2023-12-04T20:05:57;100814.19;;;-2.14;100.00
43683;BME280;29285;52.128;21.060;2023-12-04T20:10:59;100810.39;;;-2.12;100.00
43683;BME280;29285;52.128;21.060;2023-12-04T20:16:07;100808.36;;;-2.00;100.00
43683;BME280;29285;52.128;21.060;2023-12-04T20:21:09;100815.45;;;-2.01;100.00
43683;BME280;29285;52.128;21.060;2023-12-04T20:26:12;100811.04;;;-2.05;100.00
43683;BME280;29285;52.128;21.060;2023-12-04T20:31:13;100810.23;;;-2.12;100.00
43683;BME280;29285;52.128;21.060;2023-12-04T20:36:15;100808.48;;;-2.13;100.00
43683;BME280;29285;52.128;21.060;2023-12-04T20:41:19;100814.77;;;-2.17;100.00
43683;BME280;29285;52.128;21.060;2023-12-04T20:46:21;100817.01;;;-2.24;100.00
43683;BME280;29285;52.128;21.060;2023-12-04T20:51:23;100809.45;;;-2.30;100.00
43683;BME280;29285;52.128;21.060;2023-12-04T20:56:25;100809.20;;;-2.36;100.00
43683;BME280;29285;52.128;21.060;2023-12-04T21:01:26;100804.86;;;-2.42;100.00
43683;BME280;29285;52.128;21.060;2023-12-04T21:06:28;100802.77;;;-2.47;100.00
43683;BME280;29285;52.128;21.060;2023-12-04T21:11:30;100802.81;;;-2.49;100.00
43683;BME280;29285;52.128;21.060;2023-12-04T21:16:32;100800.83;;;-2.56;100.00
43683;BME280;29285;52.128;21.060;2023-12-04T21:21:34;100799.28;;;-2.60;100.00
43683;BME280;29285;52.128;21.060;2023-12-04T21:26:35;100795.97;;;-2.62;100.00
43683;BME280;29285;52.128;21.060;2023-12-04T21:31:37;100789.87;;;-2.65;100.00
43683;BME280;29285;52.128;21.060;2023-12-04T21:36:39;100783.78;;;-2.72;100.00
43683;BME280;29285;52.128;21.060;2023-12-04T21:41:41;100775.23;;;-2.77;100.00
43683;BME280;29285;52.128;21.060;2023-12-04T21:46:42;100771.33;;;-2.85;100.00
43683;BME280;29285;52.128;21.060;2023-12-04T21:51:44;100766.20;;;-2.90;100.00
43683;BME280;29285;52.128;21.060;2023-12-04T21:56:46;100763.20;;;-2.96;100.00
43683;BME280;29285;52.128;21.060;2023-12-04T22:01:48;100766.14;;;-2.98;100.00
43683;BME280;29285;52.128;21.060;2023-12-04T22:06:50;100760.60;;;-3.00;100.00
43683;BME280;29285;52.128;21.060;2023-12-04T22:11:52;100755.25;;;-3.03;100.00
43683;BME280;29285;52.128;21.060;2023-12-04T22:16:53;100756.69;;;-3.04;100.00
43683;BME280;29285;52.128;21.060;2023-12-04T22:21:55;100755.69;;;-3.04;100.00
43683;BME280;29285;52.128;21.060;2023-12-04T22:26:57;100760.02;;;-3.06;100.00
43683;BME280;29285;52.128;21.060;2023-12-04T22:31:58;100765.05;;;-3.07;100.00
43683;BME280;29285;52.128;21.060;2023-12-04T22:37:01;100760.60;;;-3.09;100.00
43683;BME280;29285;52.128;21.060;2023-12-04T22:42:03;100756.45;;;-3.10;100.00
43683;BME280;29285;52.128;21.060;2023-12-04T22:47:05;100760.02;;;-3.13;100.00
43683;BME280;29285;52.128;21.060;2023-12-04T22:52:06;100764.27;;;-3.17;100.00
43683;BME280;29285;52.128;21.060;2023-12-04T22:57:08;100762.14;;;-3.19;100.00
43683;BME280;29285;52.128;21.060;2023-12-04T23:02:09;100758.80;;;-3.22;100.00
43683;BME280;29285;52.128;21.060;2023-12-04T23:07:11;100754.09;;;-3.28;100.00
43683;BME280;29285;52.128;21.060;2023-12-04T23:12:13;100748.77;;;-3.33;100.00
43683;BME280;29285;52.128;21.060;2023-12-04T23:17:14;100739.77;;;-3.40;100.00
43683;BME280;29285;52.128;21.060;2023-12-04T23:22:16;100738.09;;;-3.47;100.00
43683;BME280;29285;52.128;21.060;2023-12-04T23:27:19;100732.38;;;-3.50;100.00
43683;BME280;29285;52.128;21.060;2023-12-04T23:32:21;100729.17;;;-3.45;100.00
43683;BME280;29285;52.128;21.060;2023-12-04T23:37:23;100724.79;;;-3.45;100.00
43683;BME280;29285;52.128;21.060;2023-12-04T23:42:24;100722.67;;;-3.43;100.00
43683;BME280;29285;52.128;21.060;2023-12-04T23:47:26;100724.46;;;-3.45;100.00
43683;BME280;29285;52.128;21.060;2023-12-04T23:52:28;100723.53;;;-3.46;100.00
43683;BME280;29285;52.128;21.060;2023-12-04T23:57:29;100714.84;;;-3.47;100.00
